Plain City, Utah
Current Conditions -  °F | °C
As of 7:53 AM on Thursday 30 Oct 2014 (Local Time) from KOGD Reporting Station
Clear Clear  
Wind Chill: 37°   Ceiling: Unl
Heat Index: 41°   Visibility: 10mi
Dew Point: 27°   Wind: 6mph
Humidity: 57%   Direction: 180°S
Pressure: 30.26"   Gusts: NA
Location:  41.2701°N, 112.135°W
Report Text: KOGD 301353Z 18005KT 10SM CLR 05/M03 A3026 RMK AO2 SLP234 T00501028
Loading
Personal Weather Stations






























Interactive Weather Map
Tropical Storm Tracking
New forecast layout! Learn more

10-Day Weather Forecast

Advertisements
Track Severe Weather on mobile